AMX400 MMMX-KJFK
Flight info
| Callsign | AMX400 |
|---|---|
| Flight time | N/A |
| Altitude | 41000 |
| Route | IKLAN2A IKLAN UT140 TAM UM575 CLONN M575 TBD DCT HRV Q56 CATLN Q64 SAWED Q108 SIE CAMRN5 |
| Aircraft | A359/H-SDE2E3GHIJ3J4J5LM1ORWXY/LB1D1 |
Departure
| Time | N/A |
|---|---|
| Airport | Mexico City Benito Juárez International Airport (MMMX) |
Arrival
| Time | 2026-05-05 23:09 |
|---|---|
| Airport | John F. Kennedy International Airport (KJFK) |
| Time | Latitude | Longitude | Altitude | Speed | Heading |
|---|---|---|---|---|---|
| 2026-05-05 21:07 | 31.28249 | -87.61362 | 40994 ft | 523 kts | 39° |
| 2026-05-05 21:07 | 31.32722 | -87.54549 | 40993 ft | 532 kts | 45° |
| 2026-05-05 21:08 | 31.36918 | -87.47398 | 40997 ft | 534 kts | 46° |
| 2026-05-05 21:08 | 31.41065 | -87.40182 | 40993 ft | 534 kts | 46° |
| 2026-05-05 21:09 | 31.45182 | -87.33009 | 40993 ft | 534 kts | 46° |
| 2026-05-05 21:09 | 31.49327 | -87.25796 | 41032 ft | 534 kts | 46° |
| 2026-05-05 21:10 | 31.53474 | -87.18577 | 40983 ft | 535 kts | 46° |
| 2026-05-05 21:10 | 31.57626 | -87.11343 | 40996 ft | 535 kts | 46° |
| 2026-05-05 21:11 | 31.61753 | -87.04135 | 40981 ft | 535 kts | 46° |
| 2026-05-05 21:11 | 31.65896 | -86.96881 | 40933 ft | 535 kts | 46° |
| 2026-05-05 21:12 | 31.70033 | -86.89625 | 40947 ft | 534 kts | 46° |
| 2026-05-05 21:12 | 31.74158 | -86.82377 | 40951 ft | 534 kts | 46° |
| 2026-05-05 21:13 | 31.78254 | -86.75168 | 40976 ft | 534 kts | 46° |
| 2026-05-05 21:13 | 31.82371 | -86.67911 | 40989 ft | 534 kts | 46° |
| 2026-05-05 21:14 | 31.86492 | -86.60631 | 40990 ft | 534 kts | 46° |
| 2026-05-05 21:14 | 31.90604 | -86.53352 | 40990 ft | 534 kts | 46° |
| 2026-05-05 21:15 | 31.94700 | -86.46082 | 40977 ft | 532 kts | 46° |
| 2026-05-05 21:15 | 31.98793 | -86.38810 | 40964 ft | 532 kts | 46° |
| 2026-05-05 21:16 | 32.02849 | -86.31591 | 41019 ft | 532 kts | 46° |
| 2026-05-05 21:16 | 32.06934 | -86.24307 | 41001 ft | 533 kts | 46° |
| 2026-05-05 21:17 | 32.11016 | -86.17011 | 41009 ft | 533 kts | 46° |
| 2026-05-05 21:17 | 32.15087 | -86.09718 | 41006 ft | 531 kts | 46° |
| 2026-05-05 21:18 | 32.19118 | -86.02486 | 41002 ft | 531 kts | 46° |
| 2026-05-05 21:18 | 32.23169 | -85.95206 | 40999 ft | 531 kts | 46° |
| 2026-05-05 21:19 | 32.27221 | -85.87911 | 41006 ft | 531 kts | 46° |
| 2026-05-05 21:19 | 32.31265 | -85.80615 | 41002 ft | 531 kts | 46° |
| 2026-05-05 21:20 | 32.35285 | -85.73348 | 40996 ft | 532 kts | 46° |
| 2026-05-05 21:20 | 32.39327 | -85.66026 | 41010 ft | 531 kts | 46° |
| 2026-05-05 21:21 | 32.43364 | -85.58699 | 41014 ft | 532 kts | 46° |
| 2026-05-05 21:21 | 32.47400 | -85.51361 | 41020 ft | 532 kts | 46° |
| 2026-05-05 21:22 | 32.51403 | -85.44068 | 41030 ft | 532 kts | 46° |
| 2026-05-05 21:22 | 32.55423 | -85.36726 | 41042 ft | 530 kts | 46° |
| 2026-05-05 21:23 | 32.59424 | -85.29403 | 41009 ft | 529 kts | 46° |
| 2026-05-05 21:23 | 32.63423 | -85.22078 | 41012 ft | 529 kts | 46° |
| 2026-05-05 21:24 | 32.67389 | -85.14797 | 41014 ft | 529 kts | 46° |
| 2026-05-05 21:24 | 32.71377 | -85.07462 | 41026 ft | 529 kts | 46° |
| 2026-05-05 21:25 | 32.75357 | -85.00124 | 41033 ft | 528 kts | 46° |
| 2026-05-05 21:25 | 32.79327 | -84.92789 | 41062 ft | 527 kts | 47° |
| 2026-05-05 21:26 | 32.83290 | -84.85456 | 41036 ft | 527 kts | 47° |
| 2026-05-05 21:26 | 32.87224 | -84.78163 | 41037 ft | 527 kts | 47° |
| 2026-05-05 21:27 | 32.91179 | -84.70815 | 41030 ft | 527 kts | 47° |
| 2026-05-05 21:27 | 32.95130 | -84.63459 | 41031 ft | 527 kts | 47° |
| 2026-05-05 21:28 | 32.99059 | -84.56125 | 41024 ft | 525 kts | 47° |
| 2026-05-05 21:28 | 33.02958 | -84.48837 | 41020 ft | 525 kts | 47° |
| 2026-05-05 21:29 | 33.06877 | -84.41501 | 41023 ft | 524 kts | 47° |
| 2026-05-05 21:29 | 33.10786 | -84.34167 | 41033 ft | 524 kts | 47° |
| 2026-05-05 21:30 | 33.14693 | -84.26822 | 41036 ft | 524 kts | 47° |
| 2026-05-05 21:30 | 33.18562 | -84.19531 | 41024 ft | 522 kts | 47° |
| 2026-05-05 21:31 | 33.22442 | -84.12206 | 41032 ft | 522 kts | 47° |
| 2026-05-05 21:31 | 33.26319 | -84.04873 | 41016 ft | 522 kts | 47° |
| 2026-05-05 21:32 | 33.30195 | -83.97529 | 41010 ft | 522 kts | 47° |
| 2026-05-05 21:32 | 33.34066 | -83.90177 | 41041 ft | 522 kts | 48° |
| 2026-05-05 21:33 | 33.37920 | -83.82840 | 41019 ft | 520 kts | 48° |
| 2026-05-05 21:33 | 33.41739 | -83.75557 | 41014 ft | 520 kts | 48° |
| 2026-05-05 21:34 | 33.45580 | -83.68222 | 41013 ft | 520 kts | 48° |
| 2026-05-05 21:34 | 33.49413 | -83.60886 | 41010 ft | 520 kts | 48° |
| 2026-05-05 21:35 | 33.53247 | -83.53532 | 41025 ft | 520 kts | 48° |
| 2026-05-05 21:35 | 33.57038 | -83.46242 | 41014 ft | 518 kts | 48° |
| 2026-05-05 21:36 | 33.60842 | -83.38914 | 41017 ft | 517 kts | 48° |
| 2026-05-05 21:36 | 33.64643 | -83.31580 | 41018 ft | 517 kts | 48° |
| 2026-05-05 21:37 | 33.68439 | -83.24243 | 41026 ft | 518 kts | 48° |
| 2026-05-05 21:37 | 33.72231 | -83.16895 | 41028 ft | 518 kts | 48° |
| 2026-05-05 21:38 | 33.75989 | -83.09597 | 41019 ft | 516 kts | 48° |
| 2026-05-05 21:38 | 33.79763 | -83.02252 | 41015 ft | 516 kts | 48° |
| 2026-05-05 21:39 | 33.83528 | -82.94915 | 41031 ft | 516 kts | 49° |
| 2026-05-05 21:39 | 33.87290 | -82.87567 | 41018 ft | 516 kts | 49° |
| 2026-05-05 21:40 | 33.91074 | -82.80306 | 41033 ft | 515 kts | 47° |
| 2026-05-05 21:40 | 33.94935 | -82.73058 | 41015 ft | 514 kts | 47° |
| 2026-05-05 21:41 | 33.98779 | -82.65815 | 41011 ft | 513 kts | 47° |
| 2026-05-05 21:41 | 34.02609 | -82.58556 | 41012 ft | 513 kts | 47° |
| 2026-05-05 21:42 | 34.06432 | -82.51283 | 41014 ft | 514 kts | 47° |
| 2026-05-05 21:42 | 34.10224 | -82.44054 | 41024 ft | 514 kts | 47° |
| 2026-05-05 21:43 | 34.14042 | -82.36757 | 41028 ft | 513 kts | 47° |
| 2026-05-05 21:43 | 34.17841 | -82.29480 | 41032 ft | 512 kts | 47° |
| 2026-05-05 21:44 | 34.21635 | -82.22204 | 41038 ft | 512 kts | 47° |
| 2026-05-05 21:44 | 34.25424 | -82.14922 | 41038 ft | 511 kts | 47° |
| 2026-05-05 21:45 | 34.29136 | -82.07638 | 41036 ft | 513 kts | 49° |
| 2026-05-05 21:45 | 34.32822 | -82.00255 | 41034 ft | 513 kts | 49° |
| 2026-05-05 21:46 | 34.36512 | -81.92864 | 41030 ft | 513 kts | 49° |
| 2026-05-05 21:46 | 34.40209 | -81.85472 | 41042 ft | 513 kts | 49° |
| 2026-05-05 21:47 | 34.43878 | -81.78130 | 41044 ft | 513 kts | 49° |
| 2026-05-05 21:47 | 34.47568 | -81.70732 | 41025 ft | 513 kts | 49° |
| 2026-05-05 21:48 | 34.51250 | -81.63333 | 41026 ft | 512 kts | 49° |
| 2026-05-05 21:48 | 34.54920 | -81.55941 | 41020 ft | 511 kts | 49° |
| 2026-05-05 21:49 | 34.58578 | -81.48561 | 41021 ft | 511 kts | 49° |
| 2026-05-05 21:49 | 34.62212 | -81.41216 | 41026 ft | 511 kts | 49° |
| 2026-05-05 21:50 | 34.65862 | -81.33819 | 41030 ft | 511 kts | 49° |
| 2026-05-05 21:50 | 34.69487 | -81.26459 | 41055 ft | 511 kts | 49° |
| 2026-05-05 21:51 | 34.73126 | -81.19051 | 41035 ft | 510 kts | 49° |
| 2026-05-05 21:51 | 34.76732 | -81.11699 | 41041 ft | 510 kts | 49° |
| 2026-05-05 21:52 | 34.81742 | -81.00174 | 41030 ft | 519 kts | 55° |
| 2026-05-05 21:53 | 34.84723 | -80.92157 | 41029 ft | 520 kts | 56° |
| 2026-05-05 21:53 | 34.87661 | -80.84118 | 41028 ft | 518 kts | 57° |
| 2026-05-05 21:54 | 34.90563 | -80.76175 | 41045 ft | 516 kts | 56° |
| 2026-05-05 21:54 | 34.93488 | -80.68192 | 41029 ft | 516 kts | 56° |
| 2026-05-05 21:55 | 34.96412 | -80.60204 | 41027 ft | 516 kts | 56° |
| 2026-05-05 21:55 | 34.99332 | -80.52202 | 41035 ft | 516 kts | 57° |
| 2026-05-05 21:56 | 35.02213 | -80.44276 | 41029 ft | 513 kts | 57° |
| 2026-05-05 21:56 | 35.05102 | -80.36315 | 41025 ft | 513 kts | 57° |
| 2026-05-05 21:57 | 35.07982 | -80.28362 | 41024 ft | 513 kts | 57° |
| 2026-05-05 21:57 | 35.10860 | -80.20394 | 41046 ft | 513 kts | 57° |
| 2026-05-05 21:58 | 35.13732 | -80.12424 | 41027 ft | 512 kts | 57° |
| 2026-05-05 21:58 | 35.16573 | -80.04514 | 41024 ft | 511 kts | 57° |
| 2026-05-05 21:59 | 35.19425 | -79.96563 | 41023 ft | 511 kts | 57° |
| 2026-05-05 21:59 | 35.22276 | -79.88613 | 41017 ft | 511 kts | 57° |
| 2026-05-05 22:00 | 35.25120 | -79.80653 | 41008 ft | 511 kts | 57° |
| 2026-05-05 22:00 | 35.27938 | -79.72746 | 41009 ft | 509 kts | 58° |
| 2026-05-05 22:01 | 35.30759 | -79.64807 | 41013 ft | 508 kts | 58° |
| 2026-05-05 22:01 | 35.33575 | -79.56873 | 41043 ft | 508 kts | 58° |
| 2026-05-05 22:02 | 35.36386 | -79.48928 | 41040 ft | 509 kts | 58° |
| 2026-05-05 22:02 | 35.39178 | -79.41020 | 41050 ft | 509 kts | 58° |
| 2026-05-05 22:03 | 35.41970 | -79.33082 | 41040 ft | 506 kts | 58° |
| 2026-05-05 22:03 | 35.44751 | -79.25160 | 41034 ft | 506 kts | 58° |
| 2026-05-05 22:04 | 35.47528 | -79.17234 | 41034 ft | 506 kts | 59° |
| 2026-05-05 22:04 | 35.50283 | -79.09353 | 41035 ft | 506 kts | 59° |
| 2026-05-05 22:05 | 35.53048 | -79.01418 | 41036 ft | 506 kts | 59° |
| 2026-05-05 22:05 | 35.55811 | -78.93468 | 41032 ft | 506 kts | 59° |
| 2026-05-05 22:06 | 35.58571 | -78.85508 | 41027 ft | 506 kts | 59° |
| 2026-05-05 22:06 | 35.61305 | -78.77598 | 41021 ft | 507 kts | 59° |
| 2026-05-05 22:07 | 35.64050 | -78.69624 | 41028 ft | 507 kts | 59° |
| 2026-05-05 22:07 | 35.66795 | -78.61636 | 41028 ft | 507 kts | 59° |
| 2026-05-05 22:08 | 35.69534 | -78.53649 | 41030 ft | 507 kts | 60° |
| 2026-05-05 22:08 | 35.72268 | -78.45655 | 41029 ft | 507 kts | 60° |
| 2026-05-05 22:09 | 35.74998 | -78.37652 | 41030 ft | 507 kts | 60° |
| 2026-05-05 22:09 | 35.77704 | -78.29704 | 41028 ft | 507 kts | 60° |
| 2026-05-05 22:10 | 35.80422 | -78.21699 | 41031 ft | 507 kts | 60° |
| 2026-05-05 22:10 | 35.83135 | -78.13687 | 41033 ft | 507 kts | 60° |
| 2026-05-05 22:11 | 35.85842 | -78.05674 | 41035 ft | 507 kts | 60° |
| 2026-05-05 22:11 | 35.88530 | -77.97697 | 41031 ft | 507 kts | 60° |
| 2026-05-05 22:12 | 35.91229 | -77.89669 | 41032 ft | 507 kts | 61° |
| 2026-05-05 22:12 | 35.93922 | -77.81633 | 41029 ft | 507 kts | 61° |
| 2026-05-05 22:13 | 35.96668 | -77.73641 | 41034 ft | 502 kts | 56° |
| 2026-05-05 22:13 | 36.00524 | -77.66652 | 41036 ft | 487 kts | 42° |
| 2026-05-05 22:14 | 36.04995 | -77.60471 | 41033 ft | 484 kts | 39° |
| 2026-05-05 22:14 | 36.10036 | -77.55119 | 41061 ft | 475 kts | 30° |
| 2026-05-05 22:15 | 36.15376 | -77.50353 | 41033 ft | 472 kts | 28° |
| 2026-05-05 22:15 | 36.20769 | -77.45713 | 41016 ft | 472 kts | 28° |
| 2026-05-05 22:16 | 36.26156 | -77.41054 | 41023 ft | 472 kts | 28° |
| 2026-05-05 22:16 | 36.31531 | -77.36362 | 41029 ft | 472 kts | 28° |
| 2026-05-05 22:17 | 36.36860 | -77.31689 | 41028 ft | 472 kts | 28° |
| 2026-05-05 22:17 | 36.42217 | -77.26981 | 41027 ft | 472 kts | 28° |
| 2026-05-05 22:18 | 36.47575 | -77.22267 | 41051 ft | 472 kts | 28° |
| 2026-05-05 22:18 | 36.52930 | -77.17550 | 41028 ft | 473 kts | 28° |
| 2026-05-05 22:19 | 36.58299 | -77.12809 | 41015 ft | 473 kts | 28° |
| 2026-05-05 22:19 | 36.63622 | -77.08099 | 41016 ft | 473 kts | 28° |
| 2026-05-05 22:20 | 36.68983 | -77.03350 | 41018 ft | 473 kts | 28° |
| 2026-05-05 22:20 | 36.74338 | -76.98597 | 41017 ft | 473 kts | 28° |
| 2026-05-05 22:21 | 36.79692 | -76.93837 | 41016 ft | 473 kts | 28° |
| 2026-05-05 22:21 | 36.85046 | -76.89070 | 41014 ft | 473 kts | 28° |
| 2026-05-05 22:22 | 36.90359 | -76.84331 | 41007 ft | 473 kts | 29° |
| 2026-05-05 22:22 | 36.95721 | -76.79540 | 40992 ft | 474 kts | 29° |
| 2026-05-05 22:23 | 37.01087 | -76.74735 | 40992 ft | 474 kts | 29° |
| 2026-05-05 22:23 | 37.06453 | -76.69922 | 40987 ft | 475 kts | 29° |
| 2026-05-05 22:24 | 37.11816 | -76.65102 | 40987 ft | 475 kts | 29° |
| 2026-05-05 22:24 | 37.17181 | -76.60274 | 40990 ft | 475 kts | 29° |
| 2026-05-05 22:25 | 37.22510 | -76.55469 | 40992 ft | 475 kts | 29° |
| 2026-05-05 22:25 | 37.27871 | -76.50626 | 40979 ft | 475 kts | 29° |
| 2026-05-05 22:26 | 37.33244 | -76.45767 | 40984 ft | 477 kts | 29° |
| 2026-05-05 22:26 | 37.38625 | -76.40888 | 40983 ft | 477 kts | 29° |
| 2026-05-05 22:27 | 37.44010 | -76.35996 | 40972 ft | 478 kts | 29° |
| 2026-05-05 22:27 | 37.49360 | -76.31128 | 40976 ft | 478 kts | 29° |
| 2026-05-05 22:28 | 37.54747 | -76.26217 | 40976 ft | 478 kts | 29° |
| 2026-05-05 22:28 | 37.60130 | -76.21301 | 40979 ft | 478 kts | 29° |
| 2026-05-05 22:29 | 37.65429 | -76.16454 | 40971 ft | 478 kts | 29° |
| 2026-05-05 22:29 | 37.70668 | -76.11654 | 40973 ft | 478 kts | 30° |
| 2026-05-05 22:30 | 37.76025 | -76.06737 | 40985 ft | 480 kts | 30° |
| 2026-05-05 22:30 | 37.81421 | -76.01773 | 40991 ft | 480 kts | 30° |
| 2026-05-05 22:31 | 37.86823 | -75.96794 | 40979 ft | 481 kts | 30° |
| 2026-05-05 22:31 | 37.92240 | -75.91794 | 40992 ft | 482 kts | 30° |
| 2026-05-05 22:32 | 37.97660 | -75.86780 | 40987 ft | 482 kts | 30° |
| 2026-05-05 22:32 | 38.03038 | -75.81796 | 41004 ft | 482 kts | 30° |
| 2026-05-05 22:33 | 38.08461 | -75.76763 | 40985 ft | 484 kts | 30° |
| 2026-05-05 22:33 | 38.13897 | -75.71708 | 40980 ft | 485 kts | 30° |
| 2026-05-05 22:34 | 38.19336 | -75.66638 | 40973 ft | 485 kts | 30° |
| 2026-05-05 22:34 | 38.24773 | -75.61560 | 40981 ft | 485 kts | 30° |
| 2026-05-05 22:35 | 38.30209 | -75.56476 | 40970 ft | 485 kts | 30° |
| 2026-05-05 22:35 | 38.35616 | -75.51408 | 40971 ft | 486 kts | 30° |
| 2026-05-05 22:36 | 38.41055 | -75.46300 | 40971 ft | 486 kts | 30° |
| 2026-05-05 22:36 | 38.46494 | -75.41185 | 40990 ft | 486 kts | 31° |
| 2026-05-05 22:37 | 38.51955 | -75.36040 | 40977 ft | 489 kts | 31° |
| 2026-05-05 22:37 | 38.57430 | -75.30868 | 40967 ft | 490 kts | 31° |
| 2026-05-05 22:38 | 38.62870 | -75.25718 | 40971 ft | 490 kts | 31° |
| 2026-05-05 22:38 | 38.68347 | -75.20526 | 40946 ft | 490 kts | 31° |
| 2026-05-05 22:39 | 38.73810 | -75.15286 | 40951 ft | 491 kts | 32° |
| 2026-05-05 22:39 | 38.79233 | -75.09949 | 40956 ft | 491 kts | 32° |
| 2026-05-05 22:40 | 38.84653 | -75.04618 | 40984 ft | 492 kts | 32° |
| 2026-05-05 22:40 | 38.90058 | -74.99301 | 40961 ft | 494 kts | 32° |
| 2026-05-05 22:41 | 38.95506 | -74.93933 | 40962 ft | 494 kts | 32° |
| 2026-05-05 22:41 | 39.00940 | -74.88567 | 40604 ft | 488 kts | 32° |
| 2026-05-05 22:41 | 39.03630 | -74.85909 | 39897 ft | 490 kts | 32° |
| 2026-05-05 22:42 | 39.06345 | -74.83226 | 39046 ft | 495 kts | 33° |
| 2026-05-05 22:42 | 39.09047 | -74.80553 | 38122 ft | 498 kts | 33° |
| 2026-05-05 22:42 | 39.11779 | -74.77785 | 37146 ft | 501 kts | 34° |
| 2026-05-05 22:42 | 39.14447 | -74.74887 | 36238 ft | 502 kts | 35° |
| 2026-05-05 22:43 | 39.17104 | -74.71973 | 35336 ft | 502 kts | 34° |
| 2026-05-05 22:43 | 39.19763 | -74.69068 | 34446 ft | 501 kts | 34° |
| 2026-05-05 22:43 | 39.22421 | -74.66175 | 33539 ft | 500 kts | 34° |
| 2026-05-05 22:43 | 39.25077 | -74.63291 | 32338 ft | 497 kts | 34° |
| 2026-05-05 22:44 | 39.27713 | -74.60430 | 31182 ft | 496 kts | 35° |
| 2026-05-05 22:44 | 39.30372 | -74.57548 | 30100 ft | 503 kts | 36° |
| 2026-05-05 22:44 | 39.32161 | -74.55606 | 29285 ft | 507 kts | 37° |
| 2026-05-05 22:44 | 39.34861 | -74.52670 | 28085 ft | 507 kts | 37° |
| 2026-05-05 22:45 | 39.38411 | -74.48803 | 26571 ft | 500 kts | 37° |
| 2026-05-05 22:45 | 39.41054 | -74.45921 | 25489 ft | 494 kts | 37° |
| 2026-05-05 22:45 | 39.42819 | -74.43998 | 24781 ft | 490 kts | 37° |
| 2026-05-05 22:45 | 39.45411 | -74.41172 | 23774 ft | 485 kts | 37° |
| 2026-05-05 22:46 | 39.47974 | -74.38369 | 22640 ft | 481 kts | 37° |
| 2026-05-05 22:46 | 39.50516 | -74.35586 | 21499 ft | 475 kts | 38° |
| 2026-05-05 22:46 | 39.52983 | -74.32884 | 20409 ft | 468 kts | 38° |
| 2026-05-05 22:46 | 39.55443 | -74.30187 | 19644 ft | 459 kts | 38° |
| 2026-05-05 22:47 | 39.57866 | -74.27530 | 19067 ft | 454 kts | 38° |
| 2026-05-05 22:47 | 39.60266 | -74.24900 | 18532 ft | 449 kts | 38° |
| 2026-05-05 22:47 | 39.62651 | -74.22280 | 18076 ft | 450 kts | 38° |
| 2026-05-05 22:47 | 39.65039 | -74.19653 | 17680 ft | 450 kts | 38° |
| 2026-05-05 22:48 | 39.67418 | -74.17033 | 17236 ft | 447 kts | 38° |
| 2026-05-05 22:48 | 39.69768 | -74.14450 | 16761 ft | 444 kts | 38° |
| 2026-05-05 22:48 | 39.71233 | -74.12835 | 16496 ft | 442 kts | 38° |
| 2026-05-05 22:48 | 39.73354 | -74.10492 | 16084 ft | 440 kts | 38° |
| 2026-05-05 22:49 | 39.75676 | -74.07925 | 15641 ft | 437 kts | 38° |
| 2026-05-05 22:49 | 39.77982 | -74.05373 | 15206 ft | 435 kts | 38° |
| 2026-05-05 22:49 | 39.80249 | -74.02865 | 14785 ft | 432 kts | 38° |
| 2026-05-05 22:49 | 39.82523 | -74.00347 | 14332 ft | 429 kts | 38° |
| 2026-05-05 22:50 | 39.84911 | -73.98060 | 13898 ft | 423 kts | 27° |
| 2026-05-05 22:50 | 39.87459 | -73.96175 | 13433 ft | 420 kts | 25° |
| 2026-05-05 22:50 | 39.90025 | -73.94372 | 12990 ft | 418 kts | 24° |
| 2026-05-05 22:50 | 39.92583 | -73.92579 | 12570 ft | 417 kts | 25° |
| 2026-05-05 22:51 | 39.95129 | -73.90786 | 12148 ft | 416 kts | 25° |
| 2026-05-05 22:51 | 39.97669 | -73.88991 | 11718 ft | 415 kts | 25° |
| 2026-05-05 22:51 | 40.00167 | -73.87222 | 11317 ft | 414 kts | 25° |
| 2026-05-05 22:51 | 40.02692 | -73.85432 | 11092 ft | 410 kts | 25° |
| 2026-05-05 22:52 | 40.05140 | -73.83696 | 11060 ft | 393 kts | 23° |
| 2026-05-05 22:52 | 40.07501 | -73.82055 | 11063 ft | 375 kts | 26° |
| 2026-05-05 22:52 | 40.09673 | -73.80345 | 11060 ft | 355 kts | 28° |
| 2026-05-05 22:52 | 40.11713 | -73.78684 | 11052 ft | 336 kts | 28° |
| 2026-05-05 22:53 | 40.13650 | -73.77094 | 11063 ft | 325 kts | 28° |
| 2026-05-05 22:53 | 40.15563 | -73.75519 | 11050 ft | 325 kts | 28° |
| 2026-05-05 22:53 | 40.17476 | -73.73945 | 11046 ft | 325 kts | 28° |
| 2026-05-05 22:53 | 40.19366 | -73.72390 | 11046 ft | 326 kts | 28° |
| 2026-05-05 22:54 | 40.21275 | -73.70817 | 11042 ft | 323 kts | 28° |
| 2026-05-05 22:54 | 40.23177 | -73.69247 | 11043 ft | 322 kts | 28° |
| 2026-05-05 22:54 | 40.25075 | -73.67682 | 11037 ft | 322 kts | 28° |
| 2026-05-05 22:54 | 40.26969 | -73.66118 | 11033 ft | 322 kts | 28° |
| 2026-05-05 22:55 | 40.28868 | -73.64558 | 11027 ft | 323 kts | 27° |
| 2026-05-05 22:55 | 40.30822 | -73.63113 | 11036 ft | 323 kts | 21° |
| 2026-05-05 22:55 | 40.32843 | -73.61941 | 11037 ft | 322 kts | 18° |
| 2026-05-05 22:55 | 40.34910 | -73.60812 | 11023 ft | 322 kts | 17° |
| 2026-05-05 22:56 | 40.36978 | -73.59690 | 11026 ft | 322 kts | 17° |
| 2026-05-05 22:56 | 40.39044 | -73.58571 | 11034 ft | 321 kts | 17° |
| 2026-05-05 22:56 | 40.41102 | -73.57446 | 11020 ft | 319 kts | 17° |
| 2026-05-05 22:56 | 40.43144 | -73.56329 | 11012 ft | 318 kts | 17° |
| 2026-05-05 22:57 | 40.45164 | -73.55217 | 10856 ft | 311 kts | 18° |
| 2026-05-05 22:57 | 40.47164 | -73.54118 | 10380 ft | 312 kts | 17° |
| 2026-05-05 22:57 | 40.49169 | -73.53012 | 9940 ft | 313 kts | 18° |
| 2026-05-05 22:57 | 40.51171 | -73.51910 | 9479 ft | 311 kts | 17° |
| 2026-05-05 22:58 | 40.53141 | -73.50821 | 9048 ft | 310 kts | 17° |
| 2026-05-05 22:58 | 40.55123 | -73.49727 | 8611 ft | 309 kts | 18° |
| 2026-05-05 22:58 | 40.57096 | -73.48640 | 8191 ft | 307 kts | 17° |
| 2026-05-05 22:58 | 40.59059 | -73.47561 | 7774 ft | 304 kts | 17° |
| 2026-05-05 22:59 | 40.61005 | -73.46501 | 7386 ft | 301 kts | 17° |
| 2026-05-05 22:59 | 40.62943 | -73.45447 | 6932 ft | 302 kts | 17° |
| 2026-05-05 22:59 | 40.64880 | -73.44392 | 6513 ft | 301 kts | 17° |
| 2026-05-05 22:59 | 40.66816 | -73.43338 | 6076 ft | 300 kts | 17° |
| 2026-05-05 23:00 | 40.70687 | -73.42707 | 5504 ft | 266 kts | 338° |
| 2026-05-05 23:00 | 40.72253 | -73.43716 | 5346 ft | 239 kts | 313° |
| 2026-05-05 23:00 | 40.73273 | -73.45299 | 5205 ft | 218 kts | 295° |
| 2026-05-05 23:01 | 40.74041 | -73.46972 | 5010 ft | 210 kts | 292° |
| 2026-05-05 23:01 | 40.74762 | -73.48638 | 4691 ft | 207 kts | 292° |
| 2026-05-05 23:01 | 40.75468 | -73.50284 | 4167 ft | 206 kts | 291° |
| 2026-05-05 23:01 | 40.76159 | -73.51888 | 3891 ft | 195 kts | 290° |
| 2026-05-05 23:02 | 40.76815 | -73.53404 | 3577 ft | 188 kts | 290° |
| 2026-05-05 23:02 | 40.77445 | -73.54878 | 3244 ft | 187 kts | 289° |
| 2026-05-05 23:02 | 40.78081 | -73.56370 | 2902 ft | 186 kts | 289° |
| 2026-05-05 23:02 | 40.78715 | -73.57856 | 2544 ft | 186 kts | 288° |
| 2026-05-05 23:03 | 40.79351 | -73.59339 | 2228 ft | 185 kts | 287° |
| 2026-05-05 23:03 | 40.80001 | -73.60802 | 1916 ft | 182 kts | 286° |
| 2026-05-05 23:03 | 40.80127 | -73.62284 | 1540 ft | 155 kts | 242° |
| 2026-05-05 23:03 | 40.79511 | -73.63398 | 1190 ft | 151 kts | 227° |
| 2026-05-05 23:04 | 40.78688 | -73.64299 | 1009 ft | 158 kts | 212° |
| 2026-05-05 23:04 | 40.77756 | -73.65050 | 987 ft | 159 kts | 212° |
| 2026-05-05 23:04 | 40.76855 | -73.65808 | 1012 ft | 145 kts | 210° |
| 2026-05-05 23:04 | 40.76074 | -73.66417 | 1018 ft | 119 kts | 210° |
| 2026-05-05 23:05 | 40.75382 | -73.66957 | 1028 ft | 115 kts | 212° |
| 2026-05-05 23:05 | 40.74697 | -73.67498 | 1012 ft | 115 kts | 212° |
| 2026-05-05 23:05 | 40.74013 | -73.68040 | 1005 ft | 115 kts | 210° |
| 2026-05-05 23:05 | 40.73324 | -73.68581 | 1006 ft | 116 kts | 211° |
| 2026-05-05 23:06 | 40.72640 | -73.69117 | 1011 ft | 117 kts | 211° |
| 2026-05-05 23:06 | 40.71947 | -73.69663 | 1006 ft | 116 kts | 212° |
| 2026-05-05 23:06 | 40.71257 | -73.70204 | 1002 ft | 115 kts | 210° |
| 2026-05-05 23:06 | 40.70572 | -73.70740 | 1001 ft | 114 kts | 210° |
| 2026-05-05 23:07 | 40.69891 | -73.71275 | 1008 ft | 114 kts | 210° |
| 2026-05-05 23:07 | 40.69206 | -73.71812 | 1012 ft | 115 kts | 211° |
| 2026-05-05 23:07 | 40.68514 | -73.72356 | 967 ft | 117 kts | 210° |
| 2026-05-05 23:07 | 40.67817 | -73.72902 | 808 ft | 117 kts | 208° |
| 2026-05-05 23:08 | 40.67126 | -73.73445 | 654 ft | 113 kts | 206° |
| 2026-05-05 23:08 | 40.66453 | -73.73973 | 477 ft | 111 kts | 206° |
| 2026-05-05 23:08 | 40.65807 | -73.74479 | 372 ft | 108 kts | 205° |
| 2026-05-05 23:08 | 40.65161 | -73.74986 | 294 ft | 106 kts | 206° |
| 2026-05-05 23:09 | 40.64752 | -73.75303 | 27 ft | 12 kts | 206° |
| 2026-05-05 23:09 | 40.64694 | -73.75336 | 15 ft | 0 kts | 198° |
| 2026-05-05 23:10 | 40.64695 | -73.75336 | 14 ft | 0 kts | 198° |
| 2026-05-05 23:10 | 40.64702 | -73.75333 | 18 ft | 1 kts | 197° |
| 2026-05-05 23:11 | 40.64703 | -73.75333 | 17 ft | 0 kts | 197° |
| 2026-05-05 23:11 | 40.64702 | -73.75333 | 16 ft | 0 kts | 197° |
| 2026-05-05 23:11 | 40.64703 | -73.75333 | 16 ft | 0 kts | 197° |
| 2026-05-05 23:11 | 40.64702 | -73.75334 | 17 ft | 0 kts | 197° |
| 2026-05-05 23:12 | 40.64702 | -73.75333 | 17 ft | 1 kts | 197° |
| 2026-05-05 23:12 | 40.64703 | -73.75333 | 17 ft | 1 kts | 197° |